sensor_id;sensor_type;location;lat;lon;timestamp;temperature;humidity
27819;DHT22;15192;44.854;10.046;2023-05-31T00:02:09;18.20;99.90
27819;DHT22;15192;44.854;10.046;2023-05-31T00:04:38;18.20;99.90
27819;DHT22;15192;44.854;10.046;2023-05-31T00:07:07;18.20;99.90
27819;DHT22;15192;44.854;10.046;2023-05-31T00:09:36;18.20;99.90
27819;DHT22;15192;44.854;10.046;2023-05-31T00:12:05;18.10;99.90
27819;DHT22;15192;44.854;10.046;2023-05-31T00:14:34;18.10;99.90
27819;DHT22;15192;44.854;10.046;2023-05-31T00:17:03;18.00;99.90
27819;DHT22;15192;44.854;10.046;2023-05-31T00:19:32;18.00;99.90
27819;DHT22;15192;44.854;10.046;2023-05-31T00:22:01;18.00;99.90
27819;DHT22;15192;44.854;10.046;2023-05-31T00:24:30;17.90;99.90
27819;DHT22;15192;44.854;10.046;2023-05-31T00:26:59;17.90;99.90
27819;DHT22;15192;44.854;10.046;2023-05-31T00:29:29;17.80;99.90
27819;DHT22;15192;44.854;10.046;2023-05-31T00:31:58;17.70;99.90
27819;DHT22;15192;44.854;10.046;2023-05-31T00:34:28;17.70;99.90
27819;DHT22;15192;44.854;10.046;2023-05-31T00:36:57;17.60;99.90
27819;DHT22;15192;44.854;10.046;2023-05-31T00:39:26;17.50;99.90
27819;DHT22;15192;44.854;10.046;2023-05-31T00:41:55;17.50;99.90
27819;DHT22;15192;44.854;10.046;2023-05-31T00:44:24;17.40;99.90
27819;DHT22;15192;44.854;10.046;2023-05-31T00:46:53;17.40;99.90
27819;DHT22;15192;44.854;10.046;2023-05-31T00:49:22;17.40;99.90
27819;DHT22;15192;44.854;10.046;2023-05-31T00:51:51;17.30;99.90
27819;DHT22;15192;44.854;10.046;2023-05-31T00:54:21;17.30;99.90
27819;DHT22;15192;44.854;10.046;2023-05-31T00:56:50;17.30;99.90
27819;DHT22;15192;44.854;10.046;2023-05-31T00:59:19;17.30;99.90
27819;DHT22;15192;44.854;10.046;2023-05-31T01:01:48;17.30;99.90
27819;DHT22;15192;44.854;10.046;2023-05-31T01:04:17;17.30;99.90
27819;DHT22;15192;44.854;10.046;2023-05-31T01:06:46;17.30;99.90
27819;DHT22;15192;44.854;10.046;2023-05-31T01:09:17;17.20;99.90
27819;DHT22;15192;44.854;10.046;2023-05-31T01:11:57;17.20;99.90
27819;DHT22;15192;44.854;10.046;2023-05-31T01:14:30;17.10;99.90
27819;DHT22;15192;44.854;10.046;2023-05-31T01:20:02;16.90;99.90
27819;DHT22;15192;44.854;10.046;2023-05-31T01:22:55;16.80;99.90
27819;DHT22;15192;44.854;10.046;2023-05-31T01:27:59;16.70;99.90
27819;DHT22;15192;44.854;10.046;2023-05-31T01:30:30;16.70;99.90
27819;DHT22;15192;44.854;10.046;2023-05-31T01:33:00;16.50;99.90
27819;DHT22;15192;44.854;10.046;2023-05-31T01:35:29;16.40;99.90
27819;DHT22;15192;44.854;10.046;2023-05-31T01:37:58;16.40;99.90
27819;DHT22;15192;44.854;10.046;2023-05-31T01:40:29;16.40;99.90
27819;DHT22;15192;44.854;10.046;2023-05-31T01:43:00;16.40;99.90
27819;DHT22;15192;44.854;10.046;2023-05-31T01:45:30;16.30;99.90
27819;DHT22;15192;44.854;10.046;2023-05-31T01:48:05;16.30;99.90
27819;DHT22;15192;44.854;10.046;2023-05-31T01:50:36;16.40;99.90
27819;DHT22;15192;44.854;10.046;2023-05-31T01:53:05;16.40;99.90
27819;DHT22;15192;44.854;10.046;2023-05-31T01:55:35;16.50;99.90
27819;DHT22;15192;44.854;10.046;2023-05-31T01:58:05;16.50;99.90
27819;DHT22;15192;44.854;10.046;2023-05-31T02:00:35;16.60;99.90
27819;DHT22;15192;44.854;10.046;2023-05-31T02:03:05;16.70;99.90
27819;DHT22;15192;44.854;10.046;2023-05-31T02:05:34;16.70;99.90
27819;DHT22;15192;44.854;10.046;2023-05-31T02:08:03;16.70;99.90
27819;DHT22;15192;44.854;10.046;2023-05-31T02:10:32;16.80;99.90
27819;DHT22;15192;44.854;10.046;2023-05-31T02:13:00;16.90;99.90
27819;DHT22;15192;44.854;10.046;2023-05-31T02:15:29;16.90;99.90
27819;DHT22;15192;44.854;10.046;2023-05-31T02:17:58;17.00;99.90
27819;DHT22;15192;44.854;10.046;2023-05-31T02:20:27;17.00;99.90
27819;DHT22;15192;44.854;10.046;2023-05-31T02:22:56;17.10;99.90
27819;DHT22;15192;44.854;10.046;2023-05-31T02:25:25;17.10;99.90
27819;DHT22;15192;44.854;10.046;2023-05-31T02:27:54;17.20;99.90
27819;DHT22;15192;44.854;10.046;2023-05-31T02:30:29;17.20;99.90
27819;DHT22;15192;44.854;10.046;2023-05-31T02:32:58;17.10;99.90
27819;DHT22;15192;44.854;10.046;2023-05-31T02:35:27;17.10;99.90
27819;DHT22;15192;44.854;10.046;2023-05-31T02:37:56;17.10;99.90
27819;DHT22;15192;44.854;10.046;2023-05-31T02:40:25;17.10;99.90
27819;DHT22;15192;44.854;10.046;2023-05-31T02:42:54;17.10;99.90
27819;DHT22;15192;44.854;10.046;2023-05-31T02:45:23;17.20;99.90
27819;DHT22;15192;44.854;10.046;2023-05-31T02:47:53;17.20;99.90
27819;DHT22;15192;44.854;10.046;2023-05-31T02:50:22;17.20;99.90
27819;DHT22;15192;44.854;10.046;2023-05-31T02:52:53;17.30;99.90
27819;DHT22;15192;44.854;10.046;2023-05-31T02:55:39;17.30;99.90
27819;DHT22;15192;44.854;10.046;2023-05-31T02:58:12;17.30;99.90
27819;DHT22;15192;44.854;10.046;2023-05-31T03:00:44;17.30;99.90
27819;DHT22;15192;44.854;10.046;2023-05-31T03:03:13;17.30;99.90
27819;DHT22;15192;44.854;10.046;2023-05-31T03:05:45;17.30;99.90
27819;DHT22;15192;44.854;10.046;2023-05-31T03:08:14;17.30;99.90
27819;DHT22;15192;44.854;10.046;2023-05-31T03:10:43;17.30;99.90
27819;DHT22;15192;44.854;10.046;2023-05-31T03:13:13;17.30;99.90
27819;DHT22;15192;44.854;10.046;2023-05-31T03:15:42;17.30;99.90
27819;DHT22;15192;44.854;10.046;2023-05-31T03:18:12;17.20;99.90
27819;DHT22;15192;44.854;10.046;2023-05-31T03:20:42;17.20;99.90
27819;DHT22;15192;44.854;10.046;2023-05-31T03:23:11;17.20;99.90
27819;DHT22;15192;44.854;10.046;2023-05-31T03:25:40;17.20;99.90
27819;DHT22;15192;44.854;10.046;2023-05-31T03:28:09;17.20;99.90
27819;DHT22;15192;44.854;10.046;2023-05-31T03:30:39;17.10;99.90
27819;DHT22;15192;44.854;10.046;2023-05-31T03:33:09;17.10;99.90
27819;DHT22;15192;44.854;10.046;2023-05-31T03:35:38;17.00;99.90
27819;DHT22;15192;44.854;10.046;2023-05-31T03:38:07;17.00;99.90
27819;DHT22;15192;44.854;10.046;2023-05-31T03:40:36;16.90;99.90
27819;DHT22;15192;44.854;10.046;2023-05-31T03:43:05;16.80;99.90
27819;DHT22;15192;44.854;10.046;2023-05-31T03:45:34;16.80;99.90
27819;DHT22;15192;44.854;10.046;2023-05-31T03:48:03;16.80;99.90
27819;DHT22;15192;44.854;10.046;2023-05-31T03:50:32;16.70;99.90
27819;DHT22;15192;44.854;10.046;2023-05-31T03:53:02;16.70;99.90
27819;DHT22;15192;44.854;10.046;2023-05-31T03:55:32;16.70;99.90
27819;DHT22;15192;44.854;10.046;2023-05-31T03:58:01;16.70;99.90
27819;DHT22;15192;44.854;10.046;2023-05-31T04:00:30;16.70;99.90
27819;DHT22;15192;44.854;10.046;2023-05-31T04:02:59;16.60;99.90
27819;DHT22;15192;44.854;10.046;2023-05-31T04:05:28;16.70;99.90
27819;DHT22;15192;44.854;10.046;2023-05-31T04:07:57;16.70;99.90
27819;DHT22;15192;44.854;10.046;2023-05-31T04:10:27;16.70;99.90
27819;DHT22;15192;44.854;10.046;2023-05-31T04:12:56;16.80;99.90
27819;DHT22;15192;44.854;10.046;2023-05-31T04:15:25;16.90;99.90
27819;DHT22;15192;44.854;10.046;2023-05-31T04:17:57;17.00;99.90
27819;DHT22;15192;44.854;10.046;2023-05-31T04:20:26;17.10;99.90
27819;DHT22;15192;44.854;10.046;2023-05-31T04:22:55;17.10;99.90
27819;DHT22;15192;44.854;10.046;2023-05-31T04:25:24;17.10;99.90
27819;DHT22;15192;44.854;10.046;2023-05-31T04:27:55;17.10;99.90
27819;DHT22;15192;44.854;10.046;2023-05-31T04:30:24;17.10;99.90
27819;DHT22;15192;44.854;10.046;2023-05-31T04:32:54;17.20;99.90
27819;DHT22;15192;44.854;10.046;2023-05-31T04:35:24;17.10;99.90
27819;DHT22;15192;44.854;10.046;2023-05-31T04:37:58;17.10;99.90
27819;DHT22;15192;44.854;10.046;2023-05-31T04:40:29;17.10;99.90
27819;DHT22;15192;44.854;10.046;2023-05-31T04:43:01;17.20;99.90
27819;DHT22;15192;44.854;10.046;2023-05-31T04:45:32;17.40;99.90
27819;DHT22;15192;44.854;10.046;2023-05-31T04:48:01;17.60;99.90
27819;DHT22;15192;44.854;10.046;2023-05-31T04:50:31;17.70;99.90
27819;DHT22;15192;44.854;10.046;2023-05-31T04:53:01;17.90;99.90
27819;DHT22;15192;44.854;10.046;2023-05-31T04:55:30;18.10;99.90
27819;DHT22;15192;44.854;10.046;2023-05-31T04:58:01;18.30;99.90
27819;DHT22;15192;44.854;10.046;2023-05-31T05:00:30;18.60;99.90
27819;DHT22;15192;44.854;10.046;2023-05-31T05:03:07;19.00;99.90
27819;DHT22;15192;44.854;10.046;2023-05-31T05:05:37;19.30;99.90
27819;DHT22;15192;44.854;10.046;2023-05-31T05:08:07;19.60;99.90
27819;DHT22;15192;44.854;10.046;2023-05-31T05:10:37;20.00;99.90
27819;DHT22;15192;44.854;10.046;2023-05-31T05:13:06;20.00;99.90
27819;DHT22;15192;44.854;10.046;2023-05-31T05:15:36;20.20;99.90
27819;DHT22;15192;44.854;10.046;2023-05-31T05:18:06;20.20;99.90
27819;DHT22;15192;44.854;10.046;2023-05-31T05:20:36;20.40;99.90
27819;DHT22;15192;44.854;10.046;2023-05-31T05:23:05;20.50;99.90
27819;DHT22;15192;44.854;10.046;2023-05-31T05:25:35;20.70;99.90
27819;DHT22;15192;44.854;10.046;2023-05-31T05:28:04;21.00;99.90
27819;DHT22;15192;44.854;10.046;2023-05-31T05:30:33;21.30;99.90
27819;DHT22;15192;44.854;10.046;2023-05-31T05:33:03;21.60;99.90
27819;DHT22;15192;44.854;10.046;2023-05-31T05:35:33;21.70;99.90
27819;DHT22;15192;44.854;10.046;2023-05-31T05:38:03;21.70;99.90
27819;DHT22;15192;44.854;10.046;2023-05-31T05:40:32;21.80;99.90
27819;DHT22;15192;44.854;10.046;2023-05-31T05:43:01;21.90;99.90
27819;DHT22;15192;44.854;10.046;2023-05-31T05:45:32;22.10;99.90
27819;DHT22;15192;44.854;10.046;2023-05-31T05:48:01;22.40;99.90
27819;DHT22;15192;44.854;10.046;2023-05-31T05:50:30;22.70;99.90
27819;DHT22;15192;44.854;10.046;2023-05-31T05:52:59;23.00;99.90
27819;DHT22;15192;44.854;10.046;2023-05-31T05:55:30;23.40;99.90
27819;DHT22;15192;44.854;10.046;2023-05-31T05:57:59;23.70;99.90
27819;DHT22;15192;44.854;10.046;2023-05-31T06:00:30;23.90;99.90
27819;DHT22;15192;44.854;10.046;2023-05-31T06:02:59;24.20;99.90
27819;DHT22;15192;44.854;10.046;2023-05-31T06:05:29;24.40;99.90
27819;DHT22;15192;44.854;10.046;2023-05-31T06:07:58;24.60;99.90
27819;DHT22;15192;44.854;10.046;2023-05-31T06:10:28;24.60;99.90
27819;DHT22;15192;44.854;10.046;2023-05-31T06:12:57;24.90;99.90
27819;DHT22;15192;44.854;10.046;2023-05-31T06:15:27;24.90;99.90
27819;DHT22;15192;44.854;10.046;2023-05-31T06:17:56;24.90;99.90
27819;DHT22;15192;44.854;10.046;2023-05-31T06:20:25;24.40;99.90
27819;DHT22;15192;44.854;10.046;2023-05-31T06:22:55;24.10;99.90
27819;DHT22;15192;44.854;10.046;2023-05-31T06:25:25;23.70;99.90
27819;DHT22;15192;44.854;10.046;2023-05-31T06:27:54;23.40;99.90
27819;DHT22;15192;44.854;10.046;2023-05-31T06:30:25;23.30;99.90
27819;DHT22;15192;44.854;10.046;2023-05-31T06:32:54;23.40;99.90
27819;DHT22;15192;44.854;10.046;2023-05-31T06:35:24;23.40;99.90
27819;DHT22;15192;44.854;10.046;2023-05-31T06:37:53;23.30;99.90
27819;DHT22;15192;44.854;10.046;2023-05-31T06:40:22;23.40;99.90
27819;DHT22;15192;44.854;10.046;2023-05-31T06:42:51;23.40;99.90
27819;DHT22;15192;44.854;10.046;2023-05-31T06:45:29;23.30;99.90
27819;DHT22;15192;44.854;10.046;2023-05-31T06:48:00;23.20;99.90
27819;DHT22;15192;44.854;10.046;2023-05-31T06:50:47;23.40;99.90
27819;DHT22;15192;44.854;10.046;2023-05-31T06:53:30;23.80;99.90
27819;DHT22;15192;44.854;10.046;2023-05-31T06:56:00;24.00;99.90
27819;DHT22;15192;44.854;10.046;2023-05-31T06:58:30;24.40;99.90
27819;DHT22;15192;44.854;10.046;2023-05-31T07:01:02;24.60;99.90
27819;DHT22;15192;44.854;10.046;2023-05-31T07:03:31;24.80;99.90
27819;DHT22;15192;44.854;10.046;2023-05-31T07:06:00;25.00;99.90
27819;DHT22;15192;44.854;10.046;2023-05-31T07:08:31;24.90;99.90
27819;DHT22;15192;44.854;10.046;2023-05-31T07:11:18;24.80;99.90
27819;DHT22;15192;44.854;10.046;2023-05-31T07:13:50;24.90;99.90
27819;DHT22;15192;44.854;10.046;2023-05-31T07:16:19;24.90;99.90
27819;DHT22;15192;44.854;10.046;2023-05-31T07:18:49;24.70;99.90
27819;DHT22;15192;44.854;10.046;2023-05-31T07:21:18;24.60;99.90
27819;DHT22;15192;44.854;10.046;2023-05-31T07:23:48;24.80;99.90
27819;DHT22;15192;44.854;10.046;2023-05-31T07:26:17;24.70;99.90
27819;DHT22;15192;44.854;10.046;2023-05-31T07:28:46;24.60;99.90
27819;DHT22;15192;44.854;10.046;2023-05-31T07:31:15;24.60;99.90
27819;DHT22;15192;44.854;10.046;2023-05-31T07:33:44;24.80;99.90
27819;DHT22;15192;44.854;10.046;2023-05-31T07:36:13;25.10;99.90
27819;DHT22;15192;44.854;10.046;2023-05-31T07:38:41;24.70;99.90
27819;DHT22;15192;44.854;10.046;2023-05-31T07:41:10;24.80;99.90
27819;DHT22;15192;44.854;10.046;2023-05-31T07:43:40;24.60;99.90
27819;DHT22;15192;44.854;10.046;2023-05-31T07:46:11;24.60;99.90
27819;DHT22;15192;44.854;10.046;2023-05-31T07:48:40;24.60;99.90
27819;DHT22;15192;44.854;10.046;2023-05-31T07:51:09;24.60;99.90
27819;DHT22;15192;44.854;10.046;2023-05-31T07:53:38;24.90;99.90
27819;DHT22;15192;44.854;10.046;2023-05-31T07:56:07;25.20;99.90
27819;DHT22;15192;44.854;10.046;2023-05-31T07:58:36;25.60;99.90
27819;DHT22;15192;44.854;10.046;2023-05-31T08:01:05;25.80;99.90
27819;DHT22;15192;44.854;10.046;2023-05-31T08:03:34;25.80;99.90
27819;DHT22;15192;44.854;10.046;2023-05-31T08:06:03;26.00;99.90
27819;DHT22;15192;44.854;10.046;2023-05-31T08:08:32;26.00;99.90
27819;DHT22;15192;44.854;10.046;2023-05-31T08:11:01;26.20;99.90
27819;DHT22;15192;44.854;10.046;2023-05-31T08:13:30;26.20;99.90
27819;DHT22;15192;44.854;10.046;2023-05-31T08:15:59;26.10;99.90
27819;DHT22;15192;44.854;10.046;2023-05-31T08:18:28;25.90;99.90
27819;DHT22;15192;44.854;10.046;2023-05-31T08:20:57;25.60;99.90
27819;DHT22;15192;44.854;10.046;2023-05-31T08:23:26;25.60;99.90
27819;DHT22;15192;44.854;10.046;2023-05-31T08:25:55;25.80;99.90
27819;DHT22;15192;44.854;10.046;2023-05-31T08:28:24;25.70;99.90
27819;DHT22;15192;44.854;10.046;2023-05-31T08:30:53;25.80;99.90
27819;DHT22;15192;44.854;10.046;2023-05-31T08:33:21;25.90;99.90
27819;DHT22;15192;44.854;10.046;2023-05-31T08:35:50;25.90;99.90
27819;DHT22;15192;44.854;10.046;2023-05-31T08:38:20;25.80;99.90
27819;DHT22;15192;44.854;10.046;2023-05-31T08:40:50;25.50;99.90
27819;DHT22;15192;44.854;10.046;2023-05-31T08:43:19;25.40;99.90
27819;DHT22;15192;44.854;10.046;2023-05-31T08:45:50;25.40;99.90
27819;DHT22;15192;44.854;10.046;2023-05-31T08:48:40;25.10;99.90
27819;DHT22;15192;44.854;10.046;2023-05-31T08:51:09;25.00;99.90
27819;DHT22;15192;44.854;10.046;2023-05-31T08:53:39;25.30;99.90
27819;DHT22;15192;44.854;10.046;2023-05-31T08:56:09;25.60;99.90
27819;DHT22;15192;44.854;10.046;2023-05-31T08:58:39;25.60;99.90
27819;DHT22;15192;44.854;10.046;2023-05-31T09:01:09;25.90;99.90
27819;DHT22;15192;44.854;10.046;2023-05-31T09:03:40;26.10;99.90
27819;DHT22;15192;44.854;10.046;2023-05-31T09:06:10;25.80;99.90
27819;DHT22;15192;44.854;10.046;2023-05-31T09:08:39;25.60;99.90
27819;DHT22;15192;44.854;10.046;2023-05-31T09:11:08;25.70;99.90
27819;DHT22;15192;44.854;10.046;2023-05-31T09:13:37;25.70;99.90
27819;DHT22;15192;44.854;10.046;2023-05-31T09:16:06;25.60;99.90
27819;DHT22;15192;44.854;10.046;2023-05-31T09:18:38;25.60;99.90
27819;DHT22;15192;44.854;10.046;2023-05-31T09:21:10;25.50;99.90
27819;DHT22;15192;44.854;10.046;2023-05-31T09:23:57;25.60;99.90
27819;DHT22;15192;44.854;10.046;2023-05-31T09:26:27;25.70;99.90
27819;DHT22;15192;44.854;10.046;2023-05-31T09:28:56;25.70;99.90
27819;DHT22;15192;44.854;10.046;2023-05-31T09:31:25;25.60;99.90
27819;DHT22;15192;44.854;10.046;2023-05-31T09:33:55;25.50;99.90
27819;DHT22;15192;44.854;10.046;2023-05-31T09:36:29;25.50;99.90
27819;DHT22;15192;44.854;10.046;2023-05-31T09:39:02;25.60;99.90
27819;DHT22;15192;44.854;10.046;2023-05-31T09:41:36;25.50;99.90
27819;DHT22;15192;44.854;10.046;2023-05-31T09:44:07;25.50;99.90
27819;DHT22;15192;44.854;10.046;2023-05-31T09:46:36;25.50;99.90
27819;DHT22;15192;44.854;10.046;2023-05-31T09:49:06;25.60;99.90
27819;DHT22;15192;44.854;10.046;2023-05-31T09:51:36;25.60;99.90
27819;DHT22;15192;44.854;10.046;2023-05-31T09:54:17;25.50;99.90
27819;DHT22;15192;44.854;10.046;2023-05-31T09:56:43;25.60;99.90
27819;DHT22;15192;44.854;10.046;2023-05-31T09:59:15;25.60;99.90
27819;DHT22;15192;44.854;10.046;2023-05-31T10:01:45;25.60;99.90
27819;DHT22;15192;44.854;10.046;2023-05-31T10:04:15;25.60;99.90
27819;DHT22;15192;44.854;10.046;2023-05-31T10:06:44;25.60;99.90
27819;DHT22;15192;44.854;10.046;2023-05-31T10:09:13;25.70;99.90
27819;DHT22;15192;44.854;10.046;2023-05-31T10:11:46;25.70;99.90
27819;DHT22;15192;44.854;10.046;2023-05-31T10:14:24;25.50;99.90
27819;DHT22;15192;44.854;10.046;2023-05-31T10:16:53;25.50;99.90
27819;DHT22;15192;44.854;10.046;2023-05-31T10:19:26;25.30;99.90
27819;DHT22;15192;44.854;10.046;2023-05-31T10:21:53;25.20;99.90
27819;DHT22;15192;44.854;10.046;2023-05-31T10:24:25;25.20;99.90
27819;DHT22;15192;44.854;10.046;2023-05-31T10:29:38;25.50;99.90
27819;DHT22;15192;44.854;10.046;2023-05-31T10:34:49;25.50;99.90
27819;DHT22;15192;44.854;10.046;2023-05-31T10:37:19;25.50;99.90
27819;DHT22;15192;44.854;10.046;2023-05-31T10:40:18;25.50;99.90
27819;DHT22;15192;44.854;10.046;2023-05-31T10:45:50;25.40;99.90
27819;DHT22;15192;44.854;10.046;2023-05-31T10:51:08;25.20;99.90
27819;DHT22;15192;44.854;10.046;2023-05-31T10:53:39;25.30;99.90
27819;DHT22;15192;44.854;10.046;2023-05-31T10:56:10;25.40;99.90
27819;DHT22;15192;44.854;10.046;2023-05-31T10:58:43;25.40;99.90
27819;DHT22;15192;44.854;10.046;2023-05-31T11:01:13;25.60;99.90
27819;DHT22;15192;44.854;10.046;2023-05-31T11:03:50;25.70;99.90
27819;DHT22;15192;44.854;10.046;2023-05-31T11:06:29;25.60;99.90
27819;DHT22;15192;44.854;10.046;2023-05-31T11:09:12;25.50;99.90
27819;DHT22;15192;44.854;10.046;2023-05-31T11:11:45;25.30;99.90
27819;DHT22;15192;44.854;10.046;2023-05-31T11:14:25;25.20;99.90
27819;DHT22;15192;44.854;10.046;2023-05-31T11:19:32;25.20;99.90
27819;DHT22;15192;44.854;10.046;2023-05-31T11:22:09;25.10;99.90
27819;DHT22;15192;44.854;10.046;2023-05-31T11:24:50;25.20;99.90
27819;DHT22;15192;44.854;10.046;2023-05-31T11:27:20;25.40;99.90
27819;DHT22;15192;44.854;10.046;2023-05-31T11:35:10;25.40;99.90
27819;DHT22;15192;44.854;10.046;2023-05-31T11:37:41;25.50;99.90
27819;DHT22;15192;44.854;10.046;2023-05-31T11:40:13;25.70;99.90
27819;DHT22;15192;44.854;10.046;2023-05-31T11:42:45;25.70;99.90
27819;DHT22;15192;44.854;10.046;2023-05-31T11:45:15;25.50;99.90
27819;DHT22;15192;44.854;10.046;2023-05-31T11:50:34;25.50;99.90
27819;DHT22;15192;44.854;10.046;2023-05-31T11:53:04;25.60;99.90
27819;DHT22;15192;44.854;10.046;2023-05-31T11:55:34;25.60;99.90
27819;DHT22;15192;44.854;10.046;2023-05-31T11:58:05;25.80;99.90
27819;DHT22;15192;44.854;10.046;2023-05-31T12:00:34;25.90;99.90
27819;DHT22;15192;44.854;10.046;2023-05-31T12:03:03;25.90;99.90
27819;DHT22;15192;44.854;10.046;2023-05-31T12:05:33;25.80;99.90
27819;DHT22;15192;44.854;10.046;2023-05-31T12:08:02;25.70;99.90
27819;DHT22;15192;44.854;10.046;2023-05-31T12:10:32;25.60;99.90
27819;DHT22;15192;44.854;10.046;2023-05-31T12:13:00;25.50;99.90
27819;DHT22;15192;44.854;10.046;2023-05-31T12:15:30;25.40;99.90
27819;DHT22;15192;44.854;10.046;2023-05-31T12:18:00;25.40;99.90
27819;DHT22;15192;44.854;10.046;2023-05-31T12:20:29;25.40;99.90
27819;DHT22;15192;44.854;10.046;2023-05-31T12:23:11;25.40;99.90
27819;DHT22;15192;44.854;10.046;2023-05-31T12:25:49;25.60;99.90
27819;DHT22;15192;44.854;10.046;2023-05-31T12:28:19;25.90;99.90
27819;DHT22;15192;44.854;10.046;2023-05-31T12:30:49;26.10;99.90
27819;DHT22;15192;44.854;10.046;2023-05-31T12:33:22;26.30;99.90
27819;DHT22;15192;44.854;10.046;2023-05-31T12:35:53;26.20;99.90
27819;DHT22;15192;44.854;10.046;2023-05-31T12:38:27;26.00;99.90
27819;DHT22;15192;44.854;10.046;2023-05-31T12:40:56;26.00;99.90
27819;DHT22;15192;44.854;10.046;2023-05-31T12:43:25;25.80;99.90
27819;DHT22;15192;44.854;10.046;2023-05-31T12:45:54;25.80;99.90
27819;DHT22;15192;44.854;10.046;2023-05-31T12:48:23;25.70;99.90
27819;DHT22;15192;44.854;10.046;2023-05-31T12:50:52;25.80;99.90
27819;DHT22;15192;44.854;10.046;2023-05-31T12:53:21;25.80;99.90
27819;DHT22;15192;44.854;10.046;2023-05-31T12:55:51;26.00;99.90
27819;DHT22;15192;44.854;10.046;2023-05-31T12:58:20;26.10;99.90
27819;DHT22;15192;44.854;10.046;2023-05-31T13:00:49;26.10;99.90
27819;DHT22;15192;44.854;10.046;2023-05-31T13:03:19;26.10;99.90
27819;DHT22;15192;44.854;10.046;2023-05-31T13:05:47;26.20;99.90
27819;DHT22;15192;44.854;10.046;2023-05-31T13:08:16;26.30;99.90
27819;DHT22;15192;44.854;10.046;2023-05-31T13:10:45;26.30;99.90
27819;DHT22;15192;44.854;10.046;2023-05-31T13:13:14;26.10;99.90
27819;DHT22;15192;44.854;10.046;2023-05-31T13:15:44;26.10;99.90
27819;DHT22;15192;44.854;10.046;2023-05-31T13:18:13;26.10;99.90
27819;DHT22;15192;44.854;10.046;2023-05-31T13:20:42;26.20;99.90
27819;DHT22;15192;44.854;10.046;2023-05-31T13:23:11;26.40;99.90
27819;DHT22;15192;44.854;10.046;2023-05-31T13:25:40;26.50;99.90
27819;DHT22;15192;44.854;10.046;2023-05-31T13:28:09;26.50;99.90
27819;DHT22;15192;44.854;10.046;2023-05-31T13:30:38;26.70;99.90
27819;DHT22;15192;44.854;10.046;2023-05-31T13:33:07;26.80;99.90
27819;DHT22;15192;44.854;10.046;2023-05-31T13:35:36;26.80;99.90
27819;DHT22;15192;44.854;10.046;2023-05-31T13:38:07;26.50;99.90
27819;DHT22;15192;44.854;10.046;2023-05-31T13:40:35;26.30;99.90
27819;DHT22;15192;44.854;10.046;2023-05-31T13:43:06;26.40;99.90
27819;DHT22;15192;44.854;10.046;2023-05-31T13:45:35;26.50;99.90
27819;DHT22;15192;44.854;10.046;2023-05-31T13:48:04;26.50;99.90
27819;DHT22;15192;44.854;10.046;2023-05-31T13:50:33;26.50;99.90
27819;DHT22;15192;44.854;10.046;2023-05-31T13:53:02;26.40;99.90
27819;DHT22;15192;44.854;10.046;2023-05-31T13:55:31;26.40;99.90
27819;DHT22;15192;44.854;10.046;2023-05-31T13:58:00;26.40;99.90
27819;DHT22;15192;44.854;10.046;2023-05-31T14:00:30;26.30;99.90
27819;DHT22;15192;44.854;10.046;2023-05-31T14:03:00;26.20;99.90
27819;DHT22;15192;44.854;10.046;2023-05-31T14:05:30;26.20;99.90
27819;DHT22;15192;44.854;10.046;2023-05-31T14:07:59;26.00;99.90
27819;DHT22;15192;44.854;10.046;2023-05-31T14:10:28;26.00;99.90
27819;DHT22;15192;44.854;10.046;2023-05-31T14:12:57;25.90;99.90
27819;DHT22;15192;44.854;10.046;2023-05-31T14:15:26;25.90;99.90
27819;DHT22;15192;44.854;10.046;2023-05-31T14:17:55;25.90;99.90
27819;DHT22;15192;44.854;10.046;2023-05-31T14:20:24;25.70;99.90
27819;DHT22;15192;44.854;10.046;2023-05-31T14:22:53;25.70;99.90
27819;DHT22;15192;44.854;10.046;2023-05-31T14:25:22;25.80;99.90
27819;DHT22;15192;44.854;10.046;2023-05-31T14:27:50;25.90;99.90
27819;DHT22;15192;44.854;10.046;2023-05-31T14:30:19;25.90;99.90
27819;DHT22;15192;44.854;10.046;2023-05-31T14:32:48;26.00;99.90
27819;DHT22;15192;44.854;10.046;2023-05-31T14:35:17;26.00;99.90
27819;DHT22;15192;44.854;10.046;2023-05-31T14:37:51;26.20;99.90
27819;DHT22;15192;44.854;10.046;2023-05-31T14:40:16;26.10;99.90
27819;DHT22;15192;44.854;10.046;2023-05-31T14:42:45;26.00;99.90
27819;DHT22;15192;44.854;10.046;2023-05-31T14:45:14;25.90;99.90
27819;DHT22;15192;44.854;10.046;2023-05-31T14:47:43;25.80;99.90
27819;DHT22;15192;44.854;10.046;2023-05-31T14:50:12;25.80;99.90
27819;DHT22;15192;44.854;10.046;2023-05-31T14:52:41;25.80;99.90
27819;DHT22;15192;44.854;10.046;2023-05-31T14:55:10;25.70;99.90
27819;DHT22;15192;44.854;10.046;2023-05-31T14:57:39;25.70;99.90
27819;DHT22;15192;44.854;10.046;2023-05-31T15:00:08;25.70;99.90
27819;DHT22;15192;44.854;10.046;2023-05-31T15:02:38;25.60;99.90
27819;DHT22;15192;44.854;10.046;2023-05-31T15:05:07;25.60;99.90
27819;DHT22;15192;44.854;10.046;2023-05-31T15:07:37;25.70;99.90
27819;DHT22;15192;44.854;10.046;2023-05-31T15:10:06;25.60;99.90
27819;DHT22;15192;44.854;10.046;2023-05-31T15:12:35;25.70;99.90
27819;DHT22;15192;44.854;10.046;2023-05-31T15:15:04;25.70;99.90
27819;DHT22;15192;44.854;10.046;2023-05-31T15:17:34;25.80;99.90
27819;DHT22;15192;44.854;10.046;2023-05-31T15:20:03;25.80;99.90
27819;DHT22;15192;44.854;10.046;2023-05-31T15:22:32;25.90;99.90
27819;DHT22;15192;44.854;10.046;2023-05-31T15:25:01;25.90;99.90
27819;DHT22;15192;44.854;10.046;2023-05-31T15:27:29;26.00;99.90
27819;DHT22;15192;44.854;10.046;2023-05-31T15:29:58;25.90;99.90
27819;DHT22;15192;44.854;10.046;2023-05-31T15:32:27;25.90;99.90
27819;DHT22;15192;44.854;10.046;2023-05-31T15:34:56;25.90;99.90
27819;DHT22;15192;44.854;10.046;2023-05-31T15:37:25;25.90;99.90
27819;DHT22;15192;44.854;10.046;2023-05-31T15:39:54;25.80;99.90
27819;DHT22;15192;44.854;10.046;2023-05-31T15:42:23;25.90;99.90
27819;DHT22;15192;44.854;10.046;2023-05-31T15:44:52;26.00;99.90
27819;DHT22;15192;44.854;10.046;2023-05-31T15:47:21;25.90;99.90
27819;DHT22;15192;44.854;10.046;2023-05-31T15:49:50;25.90;99.90
27819;DHT22;15192;44.854;10.046;2023-05-31T15:52:20;25.90;99.90
27819;DHT22;15192;44.854;10.046;2023-05-31T15:54:49;25.90;99.90
27819;DHT22;15192;44.854;10.046;2023-05-31T15:57:18;25.90;99.90
27819;DHT22;15192;44.854;10.046;2023-05-31T15:59:47;25.80;99.90
27819;DHT22;15192;44.854;10.046;2023-05-31T16:02:16;25.70;99.90